createdAt,value
2018-12-04T00:00:38.525Z,110.50
2018-12-04T00:03:08.081Z,106.73
2018-12-04T00:05:36.959Z,110.07
2018-12-04T00:08:05.737Z,114.50
2018-12-04T00:10:34.521Z,112.90
2018-12-04T00:13:03.388Z,112.33
2018-12-04T00:15:32.236Z,111.60
2018-12-04T00:18:01.000Z,110.53
2018-12-04T00:20:29.879Z,109.77
2018-12-04T00:22:58.656Z,113.07
2018-12-04T00:25:27.379Z,112.87
2018-12-04T00:27:56.091Z,138.13
2018-12-04T00:30:24.826Z,108.93
2018-12-04T00:32:53.640Z,110.23
2018-12-04T00:35:22.432Z,115.47
2018-12-04T00:37:51.514Z,126.87
2018-12-04T00:40:20.290Z,114.80
2018-12-04T00:42:49.198Z,105.27
2018-12-04T00:45:17.976Z,102.60
2018-12-04T00:47:46.753Z,108.40
2018-12-04T00:50:15.523Z,105.97
2018-12-04T00:52:44.337Z,106.80
2018-12-04T00:55:13.105Z,101.73
2018-12-04T00:57:41.826Z,101.53
2018-12-04T01:00:12.030Z,102.73
2018-12-04T01:02:40.760Z,106.40
2018-12-04T01:05:09.971Z,100.87
2018-12-04T01:07:38.705Z,110.77
2018-12-04T01:10:08.423Z,108.10
2018-12-04T01:12:38.068Z,100.63
2018-12-04T01:15:07.763Z,103.00
2018-12-04T01:17:36.991Z,107.33
2018-12-04T01:20:06.862Z,99.63
2018-12-04T01:22:35.630Z,103.20
2018-12-04T01:25:05.711Z,101.17
2018-12-04T01:27:34.445Z,98.67
2018-12-04T01:30:06.973Z,105.77
2018-12-04T01:32:35.737Z,112.93
2018-12-04T01:35:05.022Z,106.20
2018-12-04T01:37:33.784Z,97.37
2018-12-04T01:40:02.491Z,93.77
2018-12-04T01:42:31.242Z,96.93
2018-12-04T01:45:00.348Z,105.93
2018-12-04T01:47:29.085Z,103.20
2018-12-04T01:49:57.799Z,94.67
2018-12-04T01:52:26.561Z,90.67
2018-12-04T01:54:55.603Z,91.60
2018-12-04T01:57:24.805Z,86.30
2018-12-04T01:59:53.545Z,85.73
2018-12-04T02:02:22.294Z,85.73
2018-12-04T02:04:51.051Z,77.80
2018-12-04T02:07:19.767Z,80.17
2018-12-04T02:09:48.495Z,80.47
2018-12-04T02:12:17.205Z,85.53
2018-12-04T02:14:45.948Z,81.93
2018-12-04T02:17:14.689Z,83.80
2018-12-04T02:19:43.776Z,84.20
2018-12-04T02:22:12.495Z,81.47
2018-12-04T02:24:41.206Z,85.20
2018-12-04T02:27:09.959Z,80.53
2018-12-04T02:29:38.764Z,80.23
2018-12-04T02:32:07.494Z,89.53
2018-12-04T02:34:36.258Z,82.93
2018-12-04T02:37:05.466Z,76.83
2018-12-04T02:39:34.202Z,78.97
2018-12-04T02:42:03.013Z,73.67
2018-12-04T02:44:31.782Z,72.47
2018-12-04T02:47:00.588Z,72.70
2018-12-04T02:49:29.317Z,72.50
2018-12-04T02:51:58.040Z,73.33
2018-12-04T02:54:26.844Z,71.03
2018-12-04T02:59:29.580Z,70.13
2018-12-04T03:01:58.369Z,74.63
2018-12-04T03:04:27.065Z,66.73
2018-12-04T03:06:55.872Z,70.63
2018-12-04T03:09:24.629Z,69.10
2018-12-04T03:11:54.185Z,70.67
2018-12-04T03:14:22.951Z,68.30
2018-12-04T03:16:51.743Z,68.70
2018-12-04T03:19:20.528Z,66.93
2018-12-04T03:21:49.337Z,70.80
2018-12-04T03:24:19.081Z,67.33
2018-12-04T03:26:47.804Z,67.63
2018-12-04T03:29:16.608Z,67.17
2018-12-04T03:31:45.374Z,66.40
2018-12-04T03:34:14.128Z,65.67
2018-12-04T03:36:42.948Z,65.17
2018-12-04T03:39:11.724Z,65.57
2018-12-04T03:41:40.500Z,68.67
2018-12-04T03:44:09.243Z,65.80
2018-12-04T03:46:38.236Z,64.60
2018-12-04T03:49:07.028Z,64.67
2018-12-04T03:51:35.793Z,69.83
2018-12-04T03:54:04.537Z,65.10
2018-12-04T03:56:33.362Z,65.80
2018-12-04T03:59:02.482Z,67.23
2018-12-04T04:01:31.219Z,66.60
2018-12-04T04:03:59.979Z,69.97
2018-12-04T04:06:28.734Z,72.67
2018-12-04T04:08:57.525Z,68.30
2018-12-04T04:11:26.244Z,68.73
2018-12-04T04:13:55.025Z,67.47
2018-12-04T04:16:23.728Z,65.43
2018-12-04T04:18:52.535Z,67.23
2018-12-04T04:21:21.253Z,65.93
2018-12-04T04:23:50.324Z,70.97
2018-12-04T04:26:19.048Z,65.77
2018-12-04T04:28:47.772Z,67.23
2018-12-04T04:31:16.551Z,72.33
2018-12-04T04:33:45.310Z,72.43
2018-12-04T04:36:14.097Z,69.43
2018-12-04T04:38:42.922Z,75.30
2018-12-04T04:41:11.763Z,68.90
2018-12-04T04:43:40.540Z,70.47
2018-12-04T04:46:09.292Z,71.37
2018-12-04T04:48:38.022Z,68.40
2018-12-04T04:51:06.807Z,69.10
2018-12-04T04:53:35.558Z,68.37
2018-12-04T04:56:04.411Z,66.40
2018-12-04T04:58:33.152Z,67.60
2018-12-04T05:01:01.899Z,65.57
2018-12-04T05:03:30.621Z,67.17
2018-12-04T05:05:59.374Z,65.23
2018-12-04T05:08:28.085Z,64.60
2018-12-04T05:10:56.863Z,66.17
2018-12-04T05:13:25.698Z,63.37
2018-12-04T05:15:54.797Z,66.73
2018-12-04T05:18:23.583Z,63.13
2018-12-04T05:20:52.357Z,64.43
2018-12-04T05:23:21.105Z,63.97
2018-12-04T05:25:49.895Z,60.50
2018-12-04T05:28:18.715Z,63.57
2018-12-04T05:30:47.584Z,63.63
2018-12-04T05:33:16.346Z,62.10
2018-12-04T05:35:45.066Z,63.37
2018-12-04T05:38:13.801Z,66.63
2018-12-04T05:40:42.551Z,65.33
2018-12-04T05:43:11.258Z,67.30
2018-12-04T05:45:40.012Z,64.17
2018-12-04T05:48:08.782Z,61.63
2018-12-04T05:50:37.748Z,65.60
2018-12-04T05:53:17.600Z,62.17
2018-12-04T05:55:46.428Z,66.80
2018-12-04T05:58:15.166Z,62.83
2018-12-04T06:00:43.962Z,67.00
2018-12-04T06:03:12.681Z,62.17
2018-12-04T06:05:41.426Z,59.83
2018-12-04T06:08:10.487Z,61.43
2018-12-04T06:10:39.234Z,64.53
2018-12-04T06:13:08.469Z,66.00
2018-12-04T06:15:37.253Z,62.43
2018-12-04T06:18:06.017Z,63.03
2018-12-04T06:20:35.384Z,64.00
2018-12-04T06:23:04.509Z,60.10
2018-12-04T06:25:33.290Z,60.53
2018-12-04T06:28:01.986Z,62.87
2018-12-04T06:30:30.783Z,63.40
2018-12-04T06:32:59.520Z,60.87
2018-12-04T06:35:28.322Z,64.03
2018-12-04T06:37:57.064Z,62.10
2018-12-04T06:40:25.796Z,63.57
2018-12-04T06:42:54.557Z,63.23
2018-12-04T06:45:23.528Z,62.43
2018-12-04T06:47:52.392Z,63.17
2018-12-04T06:50:21.218Z,62.53
2018-12-04T06:52:50.100Z,66.43
2018-12-04T06:55:19.201Z,66.27
2018-12-04T06:57:57.396Z,62.90
2018-12-04T07:00:26.419Z,67.13
2018-12-04T07:02:55.289Z,65.87
2018-12-04T07:05:24.486Z,66.87
2018-12-04T07:07:54.002Z,68.13
2018-12-04T07:10:22.787Z,66.77
2018-12-04T07:12:51.529Z,65.07
2018-12-04T07:15:21.986Z,65.43
2018-12-04T07:17:51.366Z,66.90
2018-12-04T07:20:20.143Z,63.20
2018-12-04T07:22:49.038Z,65.27
2018-12-04T07:25:17.961Z,62.50
2018-12-04T07:27:49.193Z,67.57
2018-12-04T07:30:18.059Z,68.67
2018-12-04T07:32:46.907Z,67.63
2018-12-04T07:35:15.700Z,63.17
2018-12-04T07:37:44.522Z,65.03
2018-12-04T07:40:13.503Z,64.37
2018-12-04T07:42:42.453Z,66.40
2018-12-04T07:45:11.361Z,68.17
2018-12-04T07:47:40.211Z,69.30
2018-12-04T07:50:09.437Z,64.93
2018-12-04T07:52:38.218Z,70.60
2018-12-04T07:55:06.962Z,68.13
2018-12-04T07:57:35.900Z,70.87
2018-12-04T08:00:10.155Z,70.87
2018-12-04T08:02:39.265Z,73.63
2018-12-04T08:05:08.803Z,76.87
2018-12-04T08:07:37.579Z,69.97
2018-12-04T08:10:07.874Z,71.00
2018-12-04T08:12:36.747Z,68.77
2018-12-04T08:15:06.746Z,73.67
2018-12-04T08:17:36.385Z,70.30
2018-12-04T08:20:06.873Z,76.37
2018-12-04T08:22:35.913Z,70.40
2018-12-04T08:25:05.840Z,75.07
2018-12-04T08:27:37.074Z,69.57
2018-12-04T08:30:09.997Z,75.07
2018-12-04T08:32:38.946Z,79.47
2018-12-04T08:35:09.761Z,78.33
2018-12-04T08:37:38.551Z,74.83
2018-12-04T08:40:08.917Z,78.47
2018-12-04T08:42:37.732Z,75.43
2018-12-04T08:45:08.407Z,74.43
2018-12-04T08:47:37.177Z,77.77
2018-12-04T08:50:07.517Z,78.20
2018-12-04T08:52:36.250Z,85.17
2018-12-04T08:55:05.448Z,79.70
2018-12-04T08:57:34.513Z,79.77
2018-12-04T09:00:08.682Z,83.03
2018-12-04T09:02:37.459Z,80.20
2018-12-04T09:05:07.686Z,85.30
2018-12-04T09:07:36.789Z,81.23
2018-12-04T09:10:07.100Z,83.20
2018-12-04T09:12:35.829Z,83.57
2018-12-04T09:15:06.340Z,80.57
2018-12-04T09:17:35.456Z,85.47
2018-12-04T09:20:05.656Z,78.80
2018-12-04T09:22:34.754Z,86.60
2018-12-04T09:25:04.445Z,85.63
2018-12-04T09:27:33.159Z,88.37
2018-12-04T09:30:06.158Z,86.83
2018-12-04T09:32:34.895Z,87.10
2018-12-04T09:35:03.613Z,86.13
2018-12-04T09:37:32.349Z,87.80
2018-12-04T09:40:01.091Z,92.67
2018-12-04T09:42:29.919Z,89.17
2018-12-04T09:44:59.006Z,96.70
2018-12-04T09:47:27.816Z,96.60
2018-12-04T09:49:56.608Z,94.03
2018-12-04T09:52:25.406Z,96.87
2018-12-04T09:54:54.192Z,103.07
2018-12-04T09:57:22.945Z,99.30
2018-12-04T09:59:51.722Z,101.00
2018-12-04T10:02:20.447Z,105.17
2018-12-04T10:04:49.220Z,104.23
2018-12-04T10:07:18.129Z,106.70
2018-12-04T10:09:46.873Z,102.60
2018-12-04T10:12:15.684Z,108.13
2018-12-04T10:14:44.623Z,110.33
2018-12-04T10:17:13.987Z,106.97
2018-12-04T10:19:42.823Z,110.90
2018-12-04T10:22:12.287Z,105.37
2018-12-04T10:24:41.162Z,104.73
2018-12-04T10:27:10.003Z,106.73
2018-12-04T10:29:38.775Z,110.33
2018-12-04T10:32:07.554Z,109.60
2018-12-04T10:34:36.336Z,108.20
2018-12-04T10:37:05.595Z,106.37
2018-12-04T10:39:34.318Z,106.20
2018-12-04T10:42:03.088Z,109.23
2018-12-04T10:44:31.892Z,112.20
2018-12-04T10:47:00.758Z,109.20
2018-12-04T10:49:29.579Z,112.77
2018-12-04T10:51:58.390Z,118.30
2018-12-04T10:54:27.200Z,113.63
2018-12-04T10:56:56.040Z,120.77
2018-12-04T10:59:24.832Z,120.83
2018-12-04T11:01:58.940Z,120.93
2018-12-04T11:04:27.732Z,119.43
2018-12-04T11:06:57.559Z,121.30
2018-12-04T11:09:26.633Z,124.80
2018-12-04T11:11:55.562Z,120.60
2018-12-04T11:14:24.323Z,124.87
2018-12-04T11:16:53.080Z,125.33
2018-12-04T11:19:21.907Z,117.43
2018-12-04T11:21:50.837Z,115.53
2018-12-04T11:24:19.603Z,120.07
2018-12-04T11:26:48.646Z,120.97
2018-12-04T11:29:17.423Z,112.73
2018-12-04T11:31:46.481Z,115.97
2018-12-04T11:34:15.351Z,112.67
2018-12-04T11:36:44.158Z,115.70
2018-12-04T11:39:12.981Z,114.17
2018-12-04T11:41:41.738Z,114.97
2018-12-04T11:44:10.609Z,115.37
2018-12-04T11:46:39.462Z,110.70
2018-12-04T11:49:08.339Z,120.33
2018-12-04T11:51:37.142Z,118.37
2018-12-04T11:54:06.387Z,120.13
2018-12-04T11:56:35.193Z,119.90
2018-12-04T11:59:04.486Z,123.33
2018-12-04T12:01:33.286Z,123.53
2018-12-04T12:04:02.078Z,120.93
2018-12-04T12:06:30.822Z,118.03
2018-12-04T12:08:59.643Z,117.73
2018-12-04T12:11:34.625Z,117.93
2018-12-04T12:14:04.103Z,122.40
2018-12-04T12:16:32.833Z,123.40
2018-12-04T12:19:01.684Z,126.90
2018-12-04T12:21:30.442Z,121.93
2018-12-04T12:23:59.475Z,119.60
2018-12-04T12:26:28.213Z,122.30
2018-12-04T12:28:56.991Z,122.80
2018-12-04T12:31:26.118Z,122.37
2018-12-04T12:33:54.912Z,122.83
2018-12-04T12:36:23.678Z,121.60
2018-12-04T12:38:52.455Z,125.33
2018-12-04T12:41:21.690Z,123.23
2018-12-04T12:43:50.469Z,126.97
2018-12-04T12:46:19.292Z,126.53
2018-12-04T12:48:48.078Z,128.87
2018-12-04T12:51:16.853Z,128.03
2018-12-04T12:53:45.602Z,125.37
2018-12-04T12:56:14.449Z,123.63
2018-12-04T12:58:43.336Z,124.70
2018-12-04T13:01:12.146Z,121.00
2018-12-04T13:03:40.961Z,120.30
2018-12-04T13:06:09.840Z,135.73
2018-12-04T13:08:38.637Z,138.53
2018-12-04T13:11:12.790Z,131.33
2018-12-04T13:13:41.568Z,132.73
2018-12-04T13:16:11.597Z,128.60
2018-12-04T13:18:40.391Z,133.27
2018-12-04T13:21:09.223Z,131.37
2018-12-04T13:23:37.991Z,127.60
2018-12-04T13:26:06.822Z,133.97
2018-12-04T13:28:35.657Z,130.37
2018-12-04T13:31:04.450Z,130.77
2018-12-04T13:33:33.293Z,134.53
2018-12-04T13:36:02.159Z,130.93
2018-12-04T13:38:30.957Z,133.97
2018-12-04T13:40:59.753Z,139.23
2018-12-04T13:43:28.546Z,132.33
2018-12-04T13:45:57.388Z,138.00
2018-12-04T13:48:26.185Z,150.40
2018-12-04T13:50:55.095Z,152.40
2018-12-04T13:53:23.905Z,157.63
2018-12-04T13:55:52.730Z,156.87
2018-12-04T13:58:21.519Z,154.97
2018-12-04T14:00:50.305Z,160.83
2018-12-04T14:03:19.074Z,156.37
2018-12-04T14:05:47.875Z,169.27
2018-12-04T14:08:18.443Z,162.67
2018-12-04T14:10:47.308Z,167.77
2018-12-04T14:13:16.059Z,152.90
2018-12-04T14:15:45.004Z,166.90
2018-12-04T14:18:14.503Z,174.13
2018-12-04T14:20:43.533Z,158.00
2018-12-04T14:23:12.463Z,170.70
2018-12-04T14:25:42.146Z,162.80
2018-12-04T14:28:11.415Z,160.60
2018-12-04T14:30:40.507Z,154.90
2018-12-04T14:33:09.282Z,160.17
2018-12-04T14:35:38.057Z,157.33
2018-12-04T14:38:06.938Z,157.53
2018-12-04T14:40:35.719Z,155.07
2018-12-04T14:43:04.658Z,136.40
2018-12-04T14:45:33.382Z,133.60
2018-12-04T14:48:02.656Z,134.07
2018-12-04T14:50:31.491Z,129.73
2018-12-04T14:53:00.369Z,130.20
2018-12-04T14:55:29.396Z,137.07
2018-12-04T14:57:58.250Z,138.00
2018-12-04T15:00:27.199Z,138.70
2018-12-04T15:02:56.387Z,138.70
2018-12-04T15:05:25.274Z,141.37
2018-12-04T15:07:54.057Z,141.30
2018-12-04T15:10:23.002Z,139.00
2018-12-04T15:12:52.412Z,136.93
2018-12-04T15:15:21.187Z,143.27
2018-12-04T15:17:49.928Z,135.60
2018-12-04T15:20:19.355Z,142.13
2018-12-04T15:22:51.586Z,137.57
2018-12-04T15:25:20.680Z,135.77
2018-12-04T15:27:49.543Z,148.23
2018-12-04T15:30:18.526Z,135.63
2018-12-04T15:32:48.103Z,145.07
2018-12-04T15:35:17.721Z,145.23
2018-12-04T15:37:46.704Z,144.30
2018-12-04T15:40:15.606Z,151.77
2018-12-04T15:42:44.709Z,149.33
2018-12-04T15:45:14.259Z,141.83
2018-12-04T15:47:43.288Z,150.00
2018-12-04T15:50:12.326Z,144.40
2018-12-04T15:52:41.331Z,143.40
2018-12-04T15:55:11.467Z,155.43
2018-12-04T15:57:40.239Z,150.57
2018-12-04T16:00:12.002Z,153.10
2018-12-04T16:02:41.024Z,148.77
2018-12-04T16:05:10.545Z,155.03
2018-12-04T16:07:39.276Z,156.53
2018-12-04T16:10:11.219Z,159.90
2018-12-04T16:12:40.079Z,150.67
2018-12-04T16:15:09.362Z,151.53
2018-12-04T16:17:38.148Z,158.93
2018-12-04T16:20:09.490Z,147.53
2018-12-04T16:22:38.419Z,143.13
2018-12-04T16:25:08.829Z,146.07
2018-12-04T16:27:38.005Z,159.50
2018-12-04T16:30:11.600Z,142.03
2018-12-04T16:32:40.428Z,152.50
2018-12-04T16:35:09.997Z,142.30
2018-12-04T16:37:38.822Z,152.57
2018-12-04T16:40:08.842Z,147.00
2018-12-04T16:42:37.719Z,146.07
2018-12-04T16:45:07.662Z,146.07
2018-12-04T16:47:36.464Z,142.77
2018-12-04T16:50:06.611Z,135.77
2018-12-04T16:52:35.392Z,137.13
2018-12-04T16:55:04.886Z,142.07
2018-12-04T16:57:33.665Z,134.90
2018-12-04T17:00:06.741Z,140.27
2018-12-04T17:02:35.578Z,127.73
2018-12-04T17:05:05.581Z,134.73
2018-12-04T17:07:35.120Z,132.50
2018-12-04T17:10:04.717Z,135.23
2018-12-04T17:12:34.036Z,134.67
2018-12-04T17:15:03.382Z,134.77
2018-12-04T17:17:32.463Z,139.27
2018-12-04T17:20:01.814Z,140.07
2018-12-04T17:22:30.549Z,132.23
2018-12-04T17:24:59.411Z,138.97
2018-12-04T17:27:28.275Z,138.70
2018-12-04T17:29:57.166Z,130.67
2018-12-04T17:32:26.619Z,127.57
2018-12-04T17:34:55.400Z,131.77
2018-12-04T17:37:24.529Z,134.07
2018-12-04T17:39:54.169Z,138.20
2018-12-04T17:42:23.263Z,134.03
2018-12-04T17:44:52.170Z,135.33
2018-12-04T17:47:21.002Z,140.57
2018-12-04T17:49:49.938Z,146.97
2018-12-04T17:52:19.075Z,149.10
2018-12-04T17:54:47.953Z,145.73
2018-12-04T17:57:16.855Z,145.33
2018-12-04T17:59:45.754Z,149.70
2018-12-04T18:02:14.599Z,148.00
2018-12-04T18:04:43.592Z,155.77
2018-12-04T18:07:12.482Z,153.53
2018-12-04T18:09:41.376Z,156.17
2018-12-04T18:12:10.288Z,149.73
2018-12-04T18:14:39.320Z,163.53
2018-12-04T18:17:08.764Z,155.23
2018-12-04T18:19:37.762Z,161.07
2018-12-04T18:22:06.716Z,167.80
2018-12-04T18:24:35.595Z,171.20
2018-12-04T18:27:05.267Z,158.03
2018-12-04T18:29:35.401Z,165.37
2018-12-04T18:32:05.576Z,170.57
2018-12-04T18:34:34.476Z,161.60
2018-12-04T18:37:03.391Z,172.30
2018-12-04T18:39:32.491Z,182.93
2018-12-04T18:42:01.707Z,192.23
2018-12-04T18:44:30.644Z,188.17
2018-12-04T18:46:59.466Z,206.60
2018-12-04T18:49:29.386Z,215.17
2018-12-04T18:51:58.204Z,246.77
2018-12-04T18:54:29.209Z,229.67
2018-12-04T18:56:58.174Z,214.97
2018-12-04T18:59:27.320Z,222.33
2018-12-04T19:01:56.158Z,233.10
2018-12-04T19:04:25.039Z,262.10
2018-12-04T19:06:53.914Z,257.37
2018-12-04T19:09:22.738Z,274.17
2018-12-04T19:11:51.828Z,280.50
2018-12-04T19:14:20.609Z,272.70
2018-12-04T19:16:49.452Z,273.10
2018-12-04T19:19:18.592Z,280.70
2018-12-04T19:21:47.878Z,271.77
2018-12-04T19:24:16.928Z,262.33
2018-12-04T19:26:46.153Z,274.23
2018-12-04T19:29:15.615Z,284.53
2018-12-04T19:31:44.472Z,263.47
2018-12-04T19:34:13.543Z,268.87
2018-12-04T19:36:42.567Z,277.17
2018-12-04T19:39:11.785Z,282.57
2018-12-04T19:41:40.581Z,297.23
2018-12-04T19:44:09.830Z,283.40
2018-12-04T19:46:44.889Z,272.30
2018-12-04T19:49:13.939Z,253.47
2018-12-04T19:51:42.916Z,237.73
2018-12-04T19:54:12.160Z,205.10
2018-12-04T19:56:40.896Z,221.90
2018-12-04T19:59:09.731Z,218.57
2018-12-04T20:01:38.688Z,196.73
2018-12-04T20:04:07.867Z,200.67
2018-12-04T20:06:36.769Z,209.97
2018-12-04T20:09:09.400Z,192.30
2018-12-04T20:11:38.227Z,198.53
2018-12-04T20:14:07.458Z,194.23
2018-12-04T20:16:36.222Z,181.07
2018-12-04T20:19:05.022Z,185.10
2018-12-04T20:21:34.094Z,195.37
2018-12-04T20:24:02.912Z,182.43
2018-12-04T20:26:31.722Z,188.63
2018-12-04T20:29:00.541Z,175.83
2018-12-04T20:31:29.340Z,179.47
2018-12-04T20:33:58.074Z,176.47
2018-12-04T20:36:26.948Z,174.30
2018-12-04T20:38:56.140Z,190.37
2018-12-04T20:41:24.951Z,182.63
2018-12-04T20:43:53.729Z,172.83
2018-12-04T20:46:22.857Z,172.20
2018-12-04T20:48:51.687Z,174.27
2018-12-04T20:51:20.448Z,170.93
2018-12-04T20:53:49.227Z,173.73
2018-12-04T20:56:18.646Z,177.60
2018-12-04T20:58:47.483Z,173.90
2018-12-04T21:01:16.297Z,171.17
2018-12-04T21:03:45.063Z,171.03
2018-12-04T21:06:13.846Z,169.93
2018-12-04T21:08:42.669Z,169.90
2018-12-04T21:11:11.367Z,171.53
2018-12-04T21:13:40.142Z,179.50
2018-12-04T21:16:08.892Z,172.43
2018-12-04T21:18:38.107Z,178.30
2018-12-04T21:21:06.935Z,182.20
2018-12-04T21:23:35.695Z,186.70
2018-12-04T21:26:04.480Z,177.60
2018-12-04T21:28:33.196Z,186.80
2018-12-04T21:31:07.317Z,189.13
2018-12-04T21:33:41.460Z,193.57
2018-12-04T21:36:15.549Z,196.97
2018-12-04T21:38:49.527Z,206.47
2018-12-04T21:41:23.525Z,193.90
2018-12-04T21:43:57.460Z,195.23
2018-12-04T21:46:31.380Z,202.07
2018-12-04T21:49:00.697Z,202.50
2018-12-04T21:51:29.487Z,201.73
2018-12-04T21:53:58.222Z,197.93
2018-12-04T21:56:27.568Z,207.20
2018-12-04T21:58:56.327Z,201.70
2018-12-04T22:01:25.073Z,210.60
2018-12-04T22:03:53.805Z,195.83
2018-12-04T22:06:22.611Z,175.37
2018-12-04T22:08:51.357Z,181.93
2018-12-04T22:11:20.090Z,187.20
2018-12-04T22:13:48.953Z,180.73
2018-12-04T22:16:17.735Z,189.77
2018-12-04T22:18:46.813Z,189.40
2018-12-04T22:21:15.575Z,186.77
2018-12-04T22:23:44.353Z,196.37
2018-12-04T22:26:13.160Z,193.23
2018-12-04T22:28:42.327Z,204.70
2018-12-04T22:31:11.062Z,194.87
2018-12-04T22:33:39.773Z,194.23
2018-12-04T22:36:08.555Z,209.17
2018-12-04T22:38:37.342Z,195.17
2018-12-04T22:41:06.119Z,199.27
2018-12-04T22:43:35.225Z,197.83
2018-12-04T22:46:04.048Z,206.33
2018-12-04T22:48:32.815Z,191.03
2018-12-04T22:51:01.580Z,197.13
2018-12-04T22:53:30.395Z,195.53
2018-12-04T22:55:59.549Z,194.93
2018-12-04T22:58:28.385Z,202.53
2018-12-04T23:00:58.073Z,192.37
2018-12-04T23:03:26.817Z,197.83
2018-12-04T23:05:55.572Z,204.47
2018-12-04T23:08:24.380Z,198.77
2018-12-04T23:10:53.156Z,197.57
2018-12-04T23:13:22.553Z,196.47
2018-12-04T23:15:57.585Z,195.53
2018-12-04T23:18:26.314Z,196.00
2018-12-04T23:20:55.083Z,195.60
2018-12-04T23:23:24.139Z,210.57
2018-12-04T23:25:53.020Z,203.00
2018-12-04T23:28:21.781Z,183.57
2018-12-04T23:30:50.540Z,186.07
2018-12-04T23:33:19.410Z,191.50
2018-12-04T23:35:48.229Z,186.73
2018-12-04T23:38:17.004Z,187.00
2018-12-04T23:40:45.885Z,182.03
2018-12-04T23:43:14.764Z,192.17
2018-12-04T23:45:43.470Z,190.03
2018-12-04T23:48:12.192Z,196.37
2018-12-04T23:50:40.927Z,181.00
2018-12-04T23:53:09.656Z,174.23
2018-12-04T23:55:38.373Z,177.63
2018-12-04T23:58:07.125Z,173.77
